Time;durP1;ratioP1;P1;durP2;ratioP2;P2;SDS_P1;SDS_P2;PMS_P1;PMS_P2;Temp;Humidity;BMP_temperature;BMP_pressure;BME280_temperature;BME280_humidity;BME280_pressure;Samples;Min_cycle;Max_cycle;Signal;HPM_P1;HPM_P2
2022/04/04 00:01:30;;;;;;;8.65;4.45;;;6.00;98.40;;;;;;4982039;28;20137;-57
2022/04/04 00:03:57;;;;;;;5.22;4.18;;;6.00;98.60;;;;;;4982688;28;20745;-57
2022/04/04 00:06:27;;;;;;;8.50;5.20;;;6.00;99.10;;;;;;4972500;28;20047;-57
2022/04/04 00:08:54;;;;;;;9.77;5.35;;;6.00;99.20;;;;;;4984099;28;20051;-58
2022/04/04 00:11:21;;;;;;;13.63;5.43;;;6.10;98.80;;;;;;4983524;28;20150;-59
2022/04/04 00:13:48;;;;;;;8.85;4.60;;;6.00;98.80;;;;;;4974880;28;20138;-57
2022/04/04 00:16:15;;;;;;;9.10;4.45;;;6.00;99.20;;;;;;4956262;28;20085;-57
2022/04/04 00:18:41;;;;;;;8.20;4.93;;;6.00;99.10;;;;;;4979566;28;20109;-54
2022/04/04 00:21:08;;;;;;;6.30;4.32;;;6.00;98.80;;;;;;4983635;28;20137;-56
2022/04/04 00:23:35;;;;;;;7.38;4.40;;;6.00;99.20;;;;;;4978782;28;20093;-56
2022/04/04 00:26:03;;;;;;;9.07;4.95;;;6.00;98.80;;;;;;4979613;28;20390;-53
2022/04/04 00:28:31;;;;;;;7.20;4.40;;;6.00;99.00;;;;;;4984680;28;20059;-56
2022/04/04 00:30:57;;;;;;;6.40;4.38;;;6.00;99.60;;;;;;4986826;28;20096;-56
2022/04/04 00:33:24;;;;;;;9.50;4.82;;;6.00;99.30;;;;;;4982436;28;20096;-53
2022/04/04 00:35:51;;;;;;;7.45;4.75;;;6.00;99.30;;;;;;4986803;28;20046;-55
2022/04/04 00:38:18;;;;;;;8.35;4.55;;;6.00;99.10;;;;;;4979672;28;20193;-57
2022/04/04 00:40:44;;;;;;;10.82;5.03;;;6.00;98.90;;;;;;4967465;28;20165;-56
2022/04/04 00:43:11;;;;;;;11.07;5.53;;;6.00;99.40;;;;;;4970765;28;20074;-55
2022/04/04 00:45:38;;;;;;;11.52;4.72;;;5.90;99.50;;;;;;4986440;28;20086;-56
2022/04/04 00:48:05;;;;;;;9.70;4.13;;;5.90;99.40;;;;;;4988781;28;20105;-55
2022/04/04 00:50:32;;;;;;;8.80;5.60;;;5.90;99.50;;;;;;4972127;28;20101;-52
2022/04/04 00:52:59;;;;;;;7.85;5.00;;;5.90;99.40;;;;;;4974491;28;20047;-56
2022/04/04 00:55:25;;;;;;;7.50;5.10;;;5.90;99.90;;;;;;4952851;28;20084;-54
2022/04/04 00:57:52;;;;;;;7.15;4.82;;;5.90;99.90;;;;;;4985148;28;20074;-56
2022/04/04 01:00:20;;;;;;;7.78;4.45;;;5.90;99.90;;;;;;4997729;28;20050;-58
2022/04/04 01:02:46;;;;;;;9.30;5.13;;;5.90;99.90;;;;;;4985188;28;20046;-57
2022/04/04 01:05:13;;;;;;;8.48;4.95;;;6.00;99.90;;;;;;4981028;28;20101;-56
2022/04/04 01:07:40;;;;;;;10.32;4.63;;;5.90;99.90;;;;;;4971800;28;20074;-55
2022/04/04 01:10:09;;;;;;;8.80;4.15;;;5.90;99.90;;;;;;4978268;28;20478;-57
2022/04/04 01:12:36;;;;;;;15.25;5.30;;;5.90;99.90;;;;;;4986778;28;20038;-57
2022/04/04 01:15:03;;;;;;;7.97;5.10;;;6.00;99.90;;;;;;4980720;28;20078;-57
2022/04/04 01:17:31;;;;;;;7.20;4.60;;;6.00;99.90;;;;;;4953062;28;20051;-56
2022/04/04 01:19:57;;;;;;;7.43;4.68;;;6.00;99.90;;;;;;4978234;28;20074;-56
2022/04/04 01:22:24;;;;;;;9.10;4.43;;;6.00;99.90;;;;;;4989147;28;20074;-57
2022/04/04 01:24:51;;;;;;;6.57;3.35;;;6.00;99.90;;;;;;4982371;28;20070;-55
2022/04/04 01:27:18;;;;;;;8.13;4.00;;;6.00;99.90;;;;;;4988542;28;20149;-56
2022/04/04 01:29:45;;;;;;;6.68;3.67;;;6.00;99.90;;;;;;4983645;28;20528;-55
2022/04/04 01:32:12;;;;;;;7.20;4.00;;;6.00;99.80;;;;;;4968748;28;20051;-56
2022/04/04 01:34:39;;;;;;;7.72;4.20;;;6.10;99.90;;;;;;4972682;28;20129;-53
2022/04/04 01:37:06;;;;;;;5.05;3.72;;;6.00;99.90;;;;;;4970335;28;20074;-57
2022/04/04 01:39:32;;;;;;;7.25;3.35;;;6.00;99.90;;;;;;4984711;28;20051;-57
2022/04/04 01:42:00;;;;;;;7.55;3.88;;;6.10;99.90;;;;;;4972836;28;20493;-54
2022/04/04 01:44:26;;;;;;;5.60;3.78;;;6.00;99.90;;;;;;4973239;28;20065;-55
2022/04/04 01:46:53;;;;;;;6.55;3.78;;;6.00;99.90;;;;;;4982606;28;20074;-56
2022/04/04 01:49:20;;;;;;;9.73;3.78;;;6.00;99.90;;;;;;4983998;28;20051;-53
2022/04/04 01:51:47;;;;;;;7.90;3.95;;;6.10;99.90;;;;;;4977080;28;20074;-56
2022/04/04 01:54:14;;;;;;;6.97;3.60;;;6.00;99.90;;;;;;4956750;28;20581;-57
2022/04/04 01:56:43;;;;;;;7.60;4.15;;;6.00;99.90;;;;;;4977535;28;20108;-55
2022/04/04 01:59:10;;;;;;;5.72;3.75;;;6.10;99.90;;;;;;4984183;28;20930;-58
2022/04/04 02:01:37;;;;;;;9.75;4.18;;;6.10;99.90;;;;;;4623008;28;9999954;-54
2022/04/04 02:04:04;;;;;;;9.07;3.83;;;6.10;99.90;;;;;;4965928;28;20129;-57
2022/04/04 02:06:31;;;;;;;7.60;4.10;;;6.00;99.90;;;;;;4973875;28;20086;-56
2022/04/04 02:08:58;;;;;;;9.98;4.40;;;6.10;99.90;;;;;;4967687;28;20502;-56
2022/04/04 02:11:24;;;;;;;7.78;3.88;;;6.10;99.90;;;;;;4977265;28;20112;-57
2022/04/04 02:13:51;;;;;;;9.20;4.30;;;6.10;99.90;;;;;;4947804;28;20062;-56
2022/04/04 02:16:18;;;;;;;6.47;3.97;;;6.10;99.90;;;;;;4969071;28;20113;-56
2022/04/04 02:18:45;;;;;;;7.72;4.63;;;6.10;99.90;;;;;;4985229;28;20128;-60
2022/04/04 02:21:12;;;;;;;11.80;4.15;;;6.10;99.90;;;;;;4980702;28;20133;-56
2022/04/04 02:23:38;;;;;;;10.52;4.28;;;6.10;99.90;;;;;;4967221;28;20043;-56
2022/04/04 02:26:05;;;;;;;9.43;3.95;;;6.10;99.90;;;;;;4971647;28;20054;-53
2022/04/04 02:28:32;;;;;;;6.40;3.90;;;6.10;99.90;;;;;;4981158;28;20086;-55
2022/04/04 02:30:59;;;;;;;7.93;3.65;;;6.10;99.90;;;;;;4979916;28;20046;-56
2022/04/04 02:33:26;;;;;;;8.25;3.70;;;6.10;99.90;;;;;;4974440;28;20425;-55
2022/04/04 02:35:53;;;;;;;7.60;3.88;;;6.10;99.90;;;;;;4979859;28;20134;-54
2022/04/04 02:38:22;;;;;;;6.85;4.18;;;6.10;99.90;;;;;;4988094;28;20061;-57
2022/04/04 02:40:49;;;;;;;6.63;3.13;;;6.10;99.90;;;;;;4966698;28;20421;-57
2022/04/04 02:43:17;;;;;;;5.68;3.80;;;6.10;99.90;;;;;;4957066;28;20320;-55
2022/04/04 02:45:44;;;;;;;6.00;3.63;;;6.20;99.90;;;;;;4981499;28;20395;-56
2022/04/04 02:48:11;;;;;;;24.33;6.80;;;6.10;99.90;;;;;;4979343;28;20038;-56
2022/04/04 02:50:37;;;;;;;10.65;4.30;;;6.20;99.90;;;;;;4975857;28;20053;-59
2022/04/04 02:53:04;;;;;;;4.60;3.38;;;6.20;99.90;;;;;;4976567;28;20081;-54
2022/04/04 02:58:16;;;;;;;5.43;3.33;;;6.30;99.90;;;;;;4976814;28;20128;-56
2022/04/04 03:00:43;;;;;;;8.50;3.17;;;6.30;99.90;;;;;;4987143;28;20106;-58
2022/04/04 03:03:10;;;;;;;5.13;3.90;;;6.30;99.90;;;;;;4980443;28;20047;-54
2022/04/04 03:05:37;;;;;;;13.38;3.63;;;6.30;99.90;;;;;;4968273;28;20047;-56
2022/04/04 03:08:04;;;;;;;6.07;3.05;;;6.30;99.90;;;;;;4972741;28;20058;-57
2022/04/04 03:10:32;;;;;;;9.05;3.03;;;6.30;99.90;;;;;;4987473;28;20104;-56
2022/04/04 03:13:04;;;;;;;4.75;3.03;;;6.30;99.90;;;;;;4983251;28;20096;-57
2022/04/04 03:15:34;;;;;;;4.28;3.00;;;6.30;99.90;;;;;;4968515;28;20093;-56
2022/04/04 03:18:01;;;;;;;8.20;3.47;;;6.30;99.90;;;;;;4972235;28;20051;-57
2022/04/04 03:20:28;;;;;;;5.10;2.90;;;6.30;99.90;;;;;;4986156;28;20078;-54
2022/04/04 03:22:56;;;;;;;8.32;3.03;;;6.40;99.90;;;;;;4973562;28;20561;-55
2022/04/04 03:25:22;;;;;;;4.57;3.10;;;6.30;99.90;;;;;;4984858;28;20069;-56
2022/04/04 03:27:49;;;;;;;8.48;3.05;;;6.30;99.90;;;;;;4986741;28;20046;-55
2022/04/04 03:30:19;;;;;;;4.95;2.85;;;6.30;99.90;;;;;;4996209;28;20094;-57
2022/04/04 03:32:46;;;;;;;10.10;3.13;;;6.30;99.90;;;;;;4975236;28;20129;-57
2022/04/04 03:35:14;;;;;;;5.40;3.50;;;6.30;99.80;;;;;;4988187;28;20365;-55
2022/04/04 03:37:42;;;;;;;9.50;3.05;;;6.30;99.80;;;;;;4986897;28;20120;-57
2022/04/04 03:40:12;;;;;;;6.53;2.63;;;6.30;99.90;;;;;;4982134;28;20113;-56
2022/04/04 03:42:40;;;;;;;5.38;3.00;;;6.40;99.60;;;;;;4973891;28;20097;-57
2022/04/04 03:45:07;;;;;;;4.93;3.50;;;6.40;99.60;;;;;;4973883;28;20430;-56
2022/04/04 03:47:33;;;;;;;5.07;2.40;;;6.40;99.60;;;;;;4990355;28;20089;-51
2022/04/04 03:50:00;;;;;;;4.43;2.60;;;6.40;99.50;;;;;;4982684;28;20081;-56
2022/04/04 03:52:27;;;;;;;4.78;2.50;;;6.40;99.50;;;;;;4970893;28;20090;-55
2022/04/04 03:54:54;;;;;;;4.40;2.35;;;6.40;99.30;;;;;;4978036;28;20050;-58
2022/04/04 03:57:21;;;;;;;3.47;2.25;;;6.40;99.40;;;;;;4990498;28;20603;-57
2022/04/04 03:59:47;;;;;;;6.82;2.78;;;6.40;99.50;;;;;;4985533;28;20085;-56
2022/04/04 04:02:15;;;;;;;7.25;2.38;;;6.40;99.80;;;;;;4970853;28;20142;-55
2022/04/04 04:04:41;;;;;;;4.68;2.88;;;6.40;99.90;;;;;;4972369;28;20042;-54
2022/04/04 04:07:15;;;;;;;6.65;2.55;;;6.30;99.90;;;;;;4990885;28;20090;-57
2022/04/04 04:09:43;;;;;;;7.75;3.28;;;6.20;99.90;;;;;;4985965;28;20077;-57
2022/04/04 04:12:11;;;;;;;5.43;3.42;;;6.10;99.90;;;;;;4972383;28;20496;-56
2022/04/04 04:14:38;;;;;;;5.68;3.50;;;5.90;99.90;;;;;;4974682;28;20070;-56
2022/04/04 04:17:06;;;;;;;3.95;2.65;;;5.80;99.90;;;;;;4985998;28;20497;-55
2022/04/04 04:22:19;;;;;;;5.93;3.13;;;5.60;99.90;;;;;;4975249;28;20059;-56
2022/04/04 04:24:46;;;;;;;5.82;3.15;;;5.60;99.90;;;;;;4978750;28;20125;-57
2022/04/04 04:27:13;;;;;;;3.80;2.88;;;5.50;99.90;;;;;;4976448;28;20082;-55
2022/04/04 04:29:39;;;;;;;8.70;3.03;;;5.50;99.90;;;;;;4958479;28;20409;-56
2022/04/04 04:32:13;;;;;;;7.05;3.25;;;5.50;99.90;;;;;;4982107;28;20069;-57
2022/04/04 04:34:40;;;;;;;7.57;3.15;;;5.50;99.90;;;;;;4982159;28;20050;-56
2022/04/04 04:37:07;;;;;;;6.93;3.42;;;5.40;99.90;;;;;;4979820;28;20054;-55
2022/04/04 04:39:34;;;;;;;6.43;3.20;;;5.50;99.90;;;;;;4988534;28;20106;-57
2022/04/04 04:42:01;;;;;;;6.55;3.47;;;5.50;99.90;;;;;;4978557;28;20141;-55
2022/04/04 04:44:27;;;;;;;4.85;2.72;;;5.50;99.90;;;;;;4989132;28;20042;-57
2022/04/04 04:46:54;;;;;;;4.72;3.00;;;5.50;99.90;;;;;;4638961;28;10000441;-56
2022/04/04 04:49:22;;;;;;;7.82;3.10;;;5.50;99.90;;;;;;4987187;28;20109;-55
2022/04/04 04:51:49;;;;;;;6.55;3.17;;;5.50;99.90;;;;;;4982335;28;20066;-56
2022/04/04 04:54:16;;;;;;;4.90;3.00;;;5.60;99.90;;;;;;4970182;28;20074;-56
2022/04/04 04:56:43;;;;;;;4.18;3.03;;;5.50;99.90;;;;;;4974938;28;20554;-55
2022/04/04 04:59:10;;;;;;;5.10;3.00;;;5.50;99.90;;;;;;4989677;28;20117;-56
2022/04/04 05:01:37;;;;;;;8.25;3.35;;;5.50;99.90;;;;;;4976894;28;20561;-55
2022/04/04 05:04:04;;;;;;;6.25;3.78;;;5.50;99.90;;;;;;4989263;28;20587;-55
2022/04/04 05:06:32;;;;;;;4.57;3.33;;;5.40;99.90;;;;;;4985233;28;20137;-55
2022/04/04 05:09:00;;;;;;;5.40;3.30;;;5.30;99.90;;;;;;4972792;28;20085;-54
2022/04/04 05:11:27;;;;;;;5.72;4.03;;;5.30;99.90;;;;;;4973131;28;20059;-51
2022/04/04 05:13:53;;;;;;;5.78;3.80;;;5.30;99.90;;;;;;4984276;28;20107;-55
2022/04/04 05:16:20;;;;;;;6.80;4.05;;;5.30;99.90;;;;;;4985140;28;20149;-53
2022/04/04 05:18:47;;;;;;;5.72;3.95;;;5.30;99.90;;;;;;4976973;28;20062;-54
2022/04/04 05:21:14;;;;;;;7.00;3.83;;;5.30;99.90;;;;;;4973894;28;20210;-56
2022/04/04 05:23:41;;;;;;;6.25;3.92;;;5.30;99.90;;;;;;4979486;28;20537;-55
2022/04/04 05:26:09;;;;;;;5.60;3.67;;;5.30;99.90;;;;;;4976595;28;20053;-55
2022/04/04 05:28:35;;;;;;;10.63;5.70;;;5.30;99.90;;;;;;4971893;28;20050;-56
2022/04/04 05:31:04;;;;;;;5.57;3.90;;;5.20;99.90;;;;;;4987516;28;20471;-56
2022/04/04 05:33:31;;;;;;;7.18;4.25;;;5.20;99.90;;;;;;4976631;28;20073;-56
2022/04/04 05:35:58;;;;;;;9.40;4.30;;;5.20;99.90;;;;;;4969595;28;20078;-55
2022/04/04 05:38:25;;;;;;;8.23;4.05;;;5.20;99.90;;;;;;4976855;28;20051;-53
2022/04/04 05:40:52;;;;;;;11.65;4.72;;;5.20;99.90;;;;;;4988834;28;20551;-55
2022/04/04 05:43:19;;;;;;;7.82;4.10;;;5.20;99.90;;;;;;4982762;28;20133;-57
2022/04/04 05:45:48;;;;;;;7.13;4.18;;;5.20;99.90;;;;;;4969481;28;20133;-55
2022/04/04 05:48:15;;;;;;;8.38;4.97;;;5.20;99.90;;;;;;4973378;28;20082;-53
2022/04/04 05:50:42;;;;;;;6.28;4.55;;;5.20;99.90;;;;;;4971372;28;20085;-54
2022/04/04 05:53:09;;;;;;;14.60;5.40;;;5.20;99.90;;;;;;4984375;28;20050;-53
2022/04/04 05:55:36;;;;;;;6.97;4.65;;;5.10;99.90;;;;;;4972214;28;20113;-55
2022/04/04 05:58:03;;;;;;;9.38;4.53;;;5.20;99.90;;;;;;4972989;28;20101;-56
2022/04/04 06:00:30;;;;;;;10.35;4.65;;;5.10;99.90;;;;;;4983146;28;20130;-56
2022/04/04 06:02:56;;;;;;;12.15;4.70;;;5.20;99.90;;;;;;4987217;28;20069;-57
2022/04/04 06:05:23;;;;;;;5.78;3.58;;;5.10;99.90;;;;;;4978307;28;20054;-56
2022/04/04 06:07:50;;;;;;;15.70;5.55;;;5.30;99.90;;;;;;4979134;28;20046;-55
2022/04/04 06:10:17;;;;;;;5.97;4.35;;;5.10;99.90;;;;;;4979507;28;20054;-56
2022/04/04 06:12:44;;;;;;;7.38;4.50;;;5.10;99.90;;;;;;4985181;28;20137;-63
2022/04/04 06:15:11;;;;;;;6.72;4.22;;;5.20;99.90;;;;;;4979885;28;20046;-57
2022/04/04 06:17:41;;;;;;;6.57;4.32;;;5.20;99.90;;;;;;4977460;28;20074;-55
2022/04/04 06:20:08;;;;;;;8.57;4.50;;;5.20;99.90;;;;;;4976815;28;20050;-56
2022/04/04 06:22:36;;;;;;;12.73;4.35;;;5.30;99.90;;;;;;4969743;28;20054;-55
2022/04/04 06:25:04;;;;;;;7.80;4.65;;;5.30;99.90;;;;;;4974643;28;20430;-55
2022/04/04 06:27:31;;;;;;;6.13;4.30;;;5.30;99.90;;;;;;4969002;28;20055;-52
2022/04/04 06:29:59;;;;;;;6.78;5.18;;;5.30;99.90;;;;;;4974756;28;20551;-52
2022/04/04 06:32:26;;;;;;;9.23;4.55;;;5.30;99.90;;;;;;4988185;28;20141;-55
2022/04/04 06:34:53;;;;;;;6.57;4.10;;;5.40;99.90;;;;;;4977476;28;20050;-51
2022/04/04 06:37:20;;;;;;;8.95;4.40;;;5.40;99.90;;;;;;4969161;28;20082;-54
2022/04/04 06:39:47;;;;;;;10.10;4.60;;;5.40;99.90;;;;;;4977146;28;20046;-56
2022/04/04 06:42:14;;;;;;;6.50;3.92;;;5.40;99.90;;;;;;4976727;28;20145;-58
2022/04/04 06:44:42;;;;;;;6.53;4.45;;;5.40;99.90;;;;;;4979954;28;20133;-56
2022/04/04 06:47:10;;;;;;;5.97;4.10;;;5.40;99.90;;;;;;4972785;28;20050;-60
2022/04/04 06:49:36;;;;;;;6.95;3.83;;;5.50;99.90;;;;;;4972446;28;20265;-57
2022/04/04 06:52:03;;;;;;;7.35;3.47;;;5.50;99.90;;;;;;4981808;28;20090;-58
2022/04/04 06:54:30;;;;;;;6.93;3.95;;;5.50;99.90;;;;;;4983229;28;20047;-57
2022/04/04 06:56:57;;;;;;;8.27;3.80;;;5.50;99.90;;;;;;4971841;28;20088;-56
2022/04/04 06:59:25;;;;;;;9.20;3.45;;;5.60;99.90;;;;;;4988357;28;20049;-57
2022/04/04 07:01:51;;;;;;;5.38;3.55;;;5.60;99.90;;;;;;4971440;28;20082;-58
2022/04/04 07:04:18;;;;;;;7.38;4.05;;;5.60;99.90;;;;;;4972535;28;20062;-56
2022/04/04 07:06:45;;;;;;;5.88;3.92;;;5.60;99.90;;;;;;4979363;28;20141;-57
2022/04/04 07:09:12;;;;;;;10.52;3.95;;;5.70;99.90;;;;;;4990078;28;20085;-55
2022/04/04 07:11:38;;;;;;;6.95;3.20;;;5.70;99.90;;;;;;4982796;28;20058;-55
2022/04/04 07:14:06;;;;;;;5.43;3.47;;;5.70;99.90;;;;;;4990797;28;20078;-57
2022/04/04 07:16:33;;;;;;;5.47;2.65;;;5.80;99.90;;;;;;4984214;28;20158;-58
2022/04/04 07:19:00;;;;;;;4.90;3.15;;;5.80;99.90;;;;;;4954113;28;20418;-55
2022/04/04 07:21:28;;;;;;;4.65;2.80;;;5.90;99.90;;;;;;4972949;28;20113;-58
2022/04/04 07:23:55;;;;;;;5.68;2.88;;;5.90;99.90;;;;;;4990879;28;20050;-57
2022/04/04 07:26:23;;;;;;;5.15;2.80;;;5.90;99.90;;;;;;4972977;28;20046;-56
2022/04/04 07:28:50;;;;;;;5.95;2.92;;;5.90;99.90;;;;;;4971495;28;20085;-57
2022/04/04 07:31:17;;;;;;;9.13;3.03;;;6.00;99.90;;;;;;4983756;28;20074;-56
2022/04/04 07:33:44;;;;;;;6.97;2.88;;;6.00;99.90;;;;;;4979390;28;20097;-56
2022/04/04 07:36:11;;;;;;;3.40;2.53;;;6.10;99.90;;;;;;4979833;28;20097;-56
2022/04/04 07:38:38;;;;;;;6.03;2.50;;;6.00;99.90;;;;;;4982350;28;20050;-55
2022/04/04 07:41:05;;;;;;;3.45;2.22;;;6.00;99.90;;;;;;4981033;28;20073;-54
2022/04/04 07:43:32;;;;;;;3.35;2.42;;;6.00;99.90;;;;;;4980422;28;20050;-55
2022/04/04 07:45:58;;;;;;;5.30;2.17;;;6.10;99.90;;;;;;4978505;28;20120;-51
2022/04/04 07:48:28;;;;;;;8.18;2.72;;;6.10;99.90;;;;;;4980083;28;20058;-54
2022/04/04 07:50:55;;;;;;;3.30;2.00;;;6.20;99.90;;;;;;4981132;28;20046;-53
2022/04/04 07:53:22;;;;;;;2.63;1.77;;;6.10;99.90;;;;;;4974497;28;20140;-57
2022/04/04 07:55:49;;;;;;;5.07;2.25;;;6.00;99.90;;;;;;4981086;28;20481;-56
2022/04/04 07:58:17;;;;;;;5.53;2.60;;;6.20;99.90;;;;;;4975549;28;20886;-58
2022/04/04 08:00:45;;;;;;;3.70;2.13;;;6.20;99.90;;;;;;4988764;28;20497;-57
2022/04/04 08:03:11;;;;;;;5.40;1.75;;;6.20;99.90;;;;;;4977059;28;20058;-55
2022/04/04 08:05:38;;;;;;;3.85;1.60;;;6.30;99.90;;;;;;4989768;28;20047;-56
2022/04/04 08:08:05;;;;;;;2.28;1.58;;;6.30;99.90;;;;;;4984970;28;20120;-55
2022/04/04 08:10:33;;;;;;;4.53;1.77;;;6.30;99.90;;;;;;4988354;28;20339;-56
2022/04/04 08:13:00;;;;;;;7.78;1.98;;;6.40;99.90;;;;;;4985608;28;20046;-56
2022/04/04 08:15:27;;;;;;;3.10;1.92;;;6.50;99.90;;;;;;4633396;28;10000702;-57
2022/04/04 08:17:56;;;;;;;1.77;1.30;;;6.50;99.90;;;;;;4977904;28;20145;-58
2022/04/04 08:20:22;;;;;;;3.22;1.75;;;6.50;99.90;;;;;;4967171;28;20116;-58
2022/04/04 08:22:49;;;;;;;2.13;1.63;;;6.50;99.90;;;;;;4986809;28;20046;-57
2022/04/04 08:25:17;;;;;;;4.13;1.60;;;6.50;99.90;;;;;;4973049;28;20046;-58
2022/04/04 08:27:44;;;;;;;2.42;1.58;;;6.60;99.90;;;;;;4959061;28;20054;-56
2022/04/04 08:30:12;;;;;;;4.05;1.75;;;6.60;99.90;;;;;;4974767;28;20047;-61
2022/04/04 08:32:39;;;;;;;3.25;1.33;;;6.60;99.90;;;;;;4970828;28;20097;-59
2022/04/04 08:35:08;;;;;;;3.47;1.38;;;6.60;99.90;;;;;;4980039;28;20046;-57
2022/04/04 08:37:35;;;;;;;2.58;1.60;;;6.60;99.90;;;;;;4982797;28;20469;-57
2022/04/04 08:40:03;;;;;;;6.53;2.70;;;6.70;99.90;;;;;;4980713;28;20097;-56
2022/04/04 08:42:30;;;;;;;4.30;1.38;;;6.70;99.90;;;;;;4968078;28;20133;-56
2022/04/04 08:44:58;;;;;;;1.98;1.58;;;6.70;99.90;;;;;;4978401;28;20449;-54
2022/04/04 08:47:26;;;;;;;3.83;2.30;;;6.80;99.90;;;;;;4981253;28;20529;-56
2022/04/04 08:49:53;;;;;;;1.77;1.23;;;6.80;99.90;;;;;;4976333;28;20130;-56
2022/04/04 08:52:21;;;;;;;1.52;1.40;;;6.90;99.90;;;;;;4977330;28;20229;-58
2022/04/04 08:54:48;;;;;;;1.95;1.50;;;6.90;99.90;;;;;;4975204;28;20129;-57
2022/04/04 08:57:15;;;;;;;3.33;1.33;;;6.90;99.90;;;;;;4970809;28;20054;-57
2022/04/04 08:59:42;;;;;;;1.58;1.25;;;6.90;99.90;;;;;;4957875;28;20074;-57
2022/04/04 09:02:11;;;;;;;3.45;1.55;;;6.90;99.90;;;;;;4973881;28;20741;-57
2022/04/04 09:04:39;;;;;;;1.60;1.10;;;6.90;99.90;;;;;;4973297;28;20612;-58
2022/04/04 09:07:10;;;;;;;2.15;1.30;;;7.00;99.90;;;;;;4973391;28;20077;-54
2022/04/04 09:09:41;;;;;;;3.17;1.30;;;7.00;99.90;;;;;;4973416;28;20121;-59
2022/04/04 09:12:10;;;;;;;1.27;1.02;;;7.00;99.90;;;;;;4958831;28;20050;-55
2022/04/04 09:14:57;;;;;;;1.48;1.10;;;7.00;99.90;;;;;;4976759;28;20128;-59
2022/04/04 09:17:28;;;;;;;4.30;1.30;;;7.10;99.90;;;;;;4961848;28;20356;-57
2022/04/04 09:19:55;;;;;;;5.80;1.77;;;7.10;99.90;;;;;;4957871;28;20142;-55
2022/04/04 09:22:22;;;;;;;1.13;1.00;;;7.10;99.90;;;;;;4974724;28;20316;-56
2022/04/04 09:24:57;;;;;;;1.70;1.27;;;7.30;99.90;;;;;;4974499;28;20131;-54
2022/04/04 09:27:31;;;;;;;1.92;1.42;;;7.30;99.90;;;;;;4975188;28;20169;-56
2022/04/04 09:30:01;;;;;;;5.20;1.00;;;7.30;99.90;;;;;;4974708;28;20078;-57
2022/04/04 09:32:41;;;;;;;2.47;1.02;;;7.40;99.90;;;;;;4974286;28;20154;-57
2022/04/04 09:35:10;;;;;;;2.05;1.00;;;7.40;99.90;;;;;;4975277;28;20117;-58
2022/04/04 09:37:38;;;;;;;3.55;0.98;;;7.40;99.90;;;;;;4973731;28;20054;-57
2022/04/04 09:40:17;;;;;;;4.05;1.10;;;7.40;99.90;;;;;;4975322;28;20133;-56
2022/04/04 09:42:59;;;;;;;1.17;0.95;;;7.50;99.90;;;;;;4973092;28;20535;-54
2022/04/04 09:45:30;;;;;;;3.67;0.90;;;7.50;99.90;;;;;;4973799;28;20042;-57
2022/04/04 09:48:02;;;;;;;1.20;1.10;;;7.60;99.90;;;;;;4961310;28;20442;-57
2022/04/04 09:50:45;;;;;;;2.20;1.33;;;7.60;99.90;;;;;;4971946;28;20058;-54
2022/04/04 09:53:23;;;;;;;1.52;1.10;;;7.60;99.90;;;;;;4974030;28;20078;-56
2022/04/04 09:56:00;;;;;;;1.95;0.95;;;7.60;99.90;;;;;;4972212;28;20046;-57
2022/04/04 09:58:28;;;;;;;4.13;1.25;;;7.60;99.90;;;;;;4975021;28;20101;-57
2022/04/04 10:00:56;;;;;;;1.83;1.25;;;7.60;99.90;;;;;;4956851;28;20058;-55
2022/04/04 10:03:23;;;;;;;1.83;1.08;;;7.60;99.90;;;;;;4965517;28;20069;-58
2022/04/04 10:05:57;;;;;;;2.38;1.15;;;7.70;99.90;;;;;;4971394;28;20061;-57
2022/04/04 10:08:25;;;;;;;1.45;1.08;;;7.70;99.90;;;;;;4974146;28;20172;-57
2022/04/04 10:10:55;;;;;;;1.42;1.00;;;7.70;99.90;;;;;;4978001;28;20049;-57
2022/04/04 10:13:23;;;;;;;1.95;1.10;;;7.80;99.90;;;;;;4973166;28;20082;-57
2022/04/04 10:15:51;;;;;;;2.40;1.30;;;7.80;99.90;;;;;;4974688;28;20050;-55
2022/04/04 10:18:18;;;;;;;5.28;1.27;;;8.00;99.90;;;;;;4973931;28;20533;-57
2022/04/04 10:20:53;;;;;;;5.03;1.15;;;7.90;99.90;;;;;;4961860;28;20054;-57
2022/04/04 10:23:20;;;;;;;2.60;1.30;;;8.00;99.90;;;;;;4972644;28;20046;-57
2022/04/04 10:25:55;;;;;;;2.25;1.10;;;8.00;99.90;;;;;;4957119;28;20129;-59
2022/04/04 10:28:27;;;;;;;2.00;1.50;;;8.10;99.90;;;;;;4955629;28;20082;-58
2022/04/04 10:30:57;;;;;;;3.40;1.25;;;8.10;99.90;;;;;;4972926;28;20366;-57
2022/04/04 10:33:30;;;;;;;6.10;1.45;;;8.20;99.90;;;;;;4959346;28;20046;-59
2022/04/04 10:36:04;;;;;;;5.65;1.58;;;8.30;99.90;;;;;;4956132;28;20130;-58
2022/04/04 10:38:32;;;;;;;;;;;8.30;99.90;;;;;;4974368;28;20142;-57
2022/04/04 10:41:01;;;;;;;2.58;1.52;;;8.40;99.90;;;;;;4973738;28;19926;-57
2022/04/04 10:43:31;;;;;;;5.43;1.73;;;8.40;99.90;;;;;;4972605;28;20050;-57
2022/04/04 10:46:04;;;;;;;3.60;1.33;;;8.50;99.90;;;;;;4949840;28;20133;-58
2022/04/04 10:48:33;;;;;;;2.47;1.27;;;8.70;99.90;;;;;;4969119;28;20101;-59
2022/04/04 10:51:19;;;;;;;2.08;1.50;;;8.70;99.90;;;;;;4968000;28;20051;-57
2022/04/04 10:53:53;;;;;;;3.30;1.43;;;8.90;99.90;;;;;;4972278;28;20081;-57
2022/04/04 10:56:22;;;;;;;1.63;1.25;;;9.00;99.90;;;;;;4951835;28;20086;-58
2022/04/04 10:58:51;;;;;;;2.20;1.73;;;9.20;99.90;;;;;;4955119;28;20062;-59
2022/04/04 11:01:19;;;;;;;4.32;1.63;;;9.20;99.90;;;;;;4982822;28;20121;-57
2022/04/04 11:03:51;;;;;;;3.40;1.50;;;9.30;99.90;;;;;;4980729;28;20165;-56
2022/04/04 11:09:12;;;;;;;1.40;1.20;;;9.40;99.90;;;;;;4976580;28;20046;-58
2022/04/04 11:12:00;;;;;;;1.80;1.30;;;9.50;99.90;;;;;;4975073;28;20097;-58
2022/04/04 11:14:27;;;;;;;3.60;1.48;;;9.50;99.90;;;;;;4965267;28;20051;-59
2022/04/04 11:17:06;;;;;;;2.60;1.33;;;9.60;99.90;;;;;;4984224;28;20051;-57
2022/04/04 11:20:03;;;;;;;1.75;1.45;;;9.60;99.90;;;;;;4971838;28;20074;-59
2022/04/04 11:22:33;;;;;;;3.60;1.45;;;9.70;99.90;;;;;;4982839;28;20050;-59
2022/04/04 11:25:05;;;;;;;2.85;1.33;;;9.80;99.90;;;;;;4966700;28;20082;-58
2022/04/04 11:27:36;;;;;;;1.90;1.60;;;9.80;99.90;;;;;;4982360;28;20089;-58
2022/04/04 11:30:15;;;;;;;2.85;1.48;;;9.80;99.90;;;;;;4962308;28;20054;-59
2022/04/04 11:32:47;;;;;;;2.97;1.40;;;9.80;99.90;;;;;;4963342;28;20051;-59
2022/04/04 11:35:21;;;;;;;3.10;2.35;;;9.80;99.90;;;;;;4967158;28;20082;-58
2022/04/04 11:37:50;;;;;;;3.10;1.88;;;9.90;99.90;;;;;;4963346;28;20047;-58
2022/04/04 11:40:18;;;;;;;2.55;1.98;;;9.90;99.90;;;;;;4962995;28;20151;-58
2022/04/04 11:42:49;;;;;;;1.95;1.75;;;9.90;99.90;;;;;;4950090;28;20059;-57
2022/04/04 11:45:23;;;;;;;1.45;1.13;;;10.00;99.90;;;;;;4972806;28;20137;-56
2022/04/04 11:47:57;;;;;;;;;;;10.00;99.90;;;;;;4988056;28;20092;-57
2022/04/04 11:50:28;;;;;;;4.35;1.40;;;10.00;99.90;;;;;;4976021;28;19969;-58
2022/04/04 11:53:02;;;;;;;6.18;2.17;;;10.00;99.90;;;;;;4987502;28;20159;-58
2022/04/04 11:55:31;;;;;;;3.10;1.95;;;10.00;99.90;;;;;;4983116;28;20054;-57
2022/04/04 11:58:00;;;;;;;2.40;1.63;;;10.10;99.90;;;;;;4967505;28;20047;-58
2022/04/04 12:00:32;;;;;;;3.45;2.22;;;10.10;99.90;;;;;;4977795;28;20546;-54
2022/04/04 12:03:10;;;;;;;3.63;2.20;;;10.10;99.90;;;;;;4986466;28;20050;-58
2022/04/04 12:05:41;;;;;;;;;;;10.00;99.90;;;;;;4977597;28;20054;-57
2022/04/04 12:08:09;;;;;;;3.75;2.60;;;10.10;99.90;;;;;;4982591;28;20469;-56
2022/04/04 12:10:37;;;;;;;3.60;2.13;;;10.10;99.90;;;;;;4971520;28;20101;-58
2022/04/04 12:13:11;;;;;;;5.40;2.15;;;10.20;99.90;;;;;;4984116;28;20425;-56
2022/04/04 12:15:45;;;;;;;2.08;1.50;;;10.30;99.90;;;;;;4979698;28;20113;-58
2022/04/04 12:18:20;;;;;;;8.45;2.40;;;10.30;99.90;;;;;;4983618;28;20464;-54
2022/04/04 12:20:47;;;;;;;3.45;1.80;;;10.40;99.90;;;;;;4990016;28;20051;-56
2022/04/04 12:26:02;;;;;;;6.55;2.13;;;10.50;99.90;;;;;;4971617;28;20053;-57
2022/04/04 12:28:33;;;;;;;4.78;2.00;;;10.50;99.90;;;;;;4983599;28;20528;-56
2022/04/04 12:31:19;;;;;;;6.13;2.17;;;10.60;99.90;;;;;;4982920;28;20081;-58
2022/04/04 12:34:10;;;;;;;2.45;1.75;;;10.60;99.90;;;;;;4976496;28;20050;-58
2022/04/04 12:36:41;;;;;;;7.22;2.58;;;10.60;99.90;;;;;;4974601;28;20761;-59
2022/04/04 12:39:13;;;;;;;7.38;2.10;;;10.70;99.90;;;;;;4978372;28;20054;-58
2022/04/04 12:41:44;;;;;;;3.42;1.60;;;10.80;99.90;;;;;;4984318;28;20086;-55
2022/04/04 12:44:11;;;;;;;3.00;2.17;;;10.80;99.90;;;;;;4998819;28;20082;-58
2022/04/04 12:46:37;;;;;;;2.70;2.00;;;10.90;99.90;;;;;;4976074;28;20106;-58
2022/04/04 12:49:12;;;;;;;3.67;2.03;;;10.90;99.90;;;;;;4984383;28;20050;-58
2022/04/04 12:51:39;;;;;;;2.67;1.67;;;10.90;99.90;;;;;;4984308;28;20078;-57
2022/04/04 12:54:06;;;;;;;2.83;2.00;;;11.00;99.90;;;;;;4978552;28;20089;-58
2022/04/04 12:56:49;;;;;;;4.32;1.90;;;11.10;99.90;;;;;;4975979;28;20289;-58
2022/04/04 12:59:16;;;;;;;2.15;1.67;;;11.20;99.90;;;;;;4980224;28;20058;-58
2022/04/04 13:01:45;;;;;;;2.05;1.50;;;11.30;99.90;;;;;;4976004;28;20088;-58
2022/04/04 13:04:19;;;;;;;3.58;2.10;;;11.40;99.90;;;;;;4963436;28;20050;-57
2022/04/04 13:06:47;;;;;;;4.65;1.70;;;11.40;99.90;;;;;;4984217;28;20129;-58
2022/04/04 13:09:21;;;;;;;9.13;2.72;;;11.40;99.90;;;;;;4983454;28;20078;-58
2022/04/04 13:11:48;;;;;;;3.28;2.15;;;11.40;99.90;;;;;;4976612;28;20157;-57
2022/04/04 13:14:15;;;;;;;2.38;1.70;;;11.50;99.90;;;;;;4977509;28;20046;-56